N737M LMML-OBBI
Flight info
| Callsign | N737M |
|---|---|
| Flight time | 4h 16m |
| Altitude | 37000 |
| Route | GODAK DCT ARLOS DCT SALUN N705 BOPIX N710 TAKRI M720 FYM M872 SIKNO/N0456F390 M872 WEJ L604 KFA M691 LADNA |
| Aircraft | B738/M-SCDE2E3FGHIJ4J5J7M1M3P2RWXYZ/LB1D1 |
Departure
| Time | 2026-04-30 15:09 |
|---|---|
| Airport | Malta International Airport (LMML) |
Arrival
| Time | 2026-04-30 19:26 |
|---|---|
| Airport | Bahrain International Airport (OBBI) |
| Time | Latitude | Longitude | Altitude | Speed | Heading |
|---|---|---|---|---|---|
| 2026-04-30 14:43 | 35.84794 | 14.49301 | 258 ft | 0 kts | 224° |
| 2026-04-30 15:00 | 35.84787 | 14.49293 | 258 ft | 2 kts | 224° |
| 2026-04-30 15:00 | 35.84781 | 14.49247 | 258 ft | 3 kts | 307° |
| 2026-04-30 15:01 | 35.84812 | 14.49209 | 258 ft | 3 kts | 315° |
| 2026-04-30 15:01 | 35.84822 | 14.49197 | 258 ft | 3 kts | 315° |
| 2026-04-30 15:01 | 35.84858 | 14.49153 | 258 ft | 4 kts | 315° |
| 2026-04-30 15:02 | 35.84882 | 14.49124 | 258 ft | 6 kts | 315° |
| 2026-04-30 15:02 | 35.84910 | 14.49089 | 257 ft | 6 kts | 315° |
| 2026-04-30 15:03 | 35.84975 | 14.48969 | 258 ft | 6 kts | 291° |
| 2026-04-30 15:03 | 35.84996 | 14.48880 | 258 ft | 5 kts | 283° |
| 2026-04-30 15:04 | 35.85015 | 14.48791 | 260 ft | 5 kts | 287° |
| 2026-04-30 15:04 | 35.85045 | 14.48664 | 264 ft | 5 kts | 287° |
| 2026-04-30 15:05 | 35.85130 | 14.48513 | 273 ft | 15 kts | 315° |
| 2026-04-30 15:06 | 35.85357 | 14.48231 | 271 ft | 25 kts | 315° |
| 2026-04-30 15:06 | 35.85543 | 14.48063 | 271 ft | 13 kts | 337° |
| 2026-04-30 15:07 | 35.85656 | 14.48020 | 271 ft | 7 kts | 340° |
| 2026-04-30 15:07 | 35.85647 | 14.47927 | 272 ft | 7 kts | 215° |
| 2026-04-30 15:08 | 35.85595 | 14.47936 | 271 ft | 0 kts | 135° |
| 2026-04-30 15:08 | 35.85567 | 14.47971 | 274 ft | 22 kts | 134° |
| 2026-04-30 15:09 | 35.84685 | 14.49062 | 258 ft | 150 kts | 134° |
| 2026-04-30 15:09 | 35.82942 | 14.51054 | 1237 ft | 182 kts | 139° |
| 2026-04-30 15:10 | 35.80225 | 14.51812 | 1737 ft | 237 kts | 204° |
| 2026-04-30 15:11 | 35.74389 | 14.50519 | 3781 ft | 277 kts | 124° |
| 2026-04-30 15:11 | 35.72493 | 14.54745 | 5271 ft | 287 kts | 115° |
| 2026-04-30 15:12 | 35.71380 | 14.61933 | 7558 ft | 294 kts | 92° |
| 2026-04-30 15:13 | 35.71098 | 14.67045 | 8972 ft | 303 kts | 91° |
| 2026-04-30 15:14 | 35.70504 | 14.78079 | 10692 ft | 361 kts | 91° |
| 2026-04-30 15:14 | 35.69961 | 14.87812 | 12071 ft | 390 kts | 92° |
| 2026-04-30 15:16 | 35.68978 | 15.04929 | 15054 ft | 412 kts | 92° |
| 2026-04-30 15:17 | 35.68141 | 15.19279 | 17251 ft | 429 kts | 92° |
| 2026-04-30 15:18 | 35.67025 | 15.37985 | 19691 ft | 447 kts | 92° |
| 2026-04-30 15:19 | 35.66209 | 15.49491 | 21074 ft | 458 kts | 99° |
| 2026-04-30 17:39 | 26.51990 | 35.60673 | 36893 ft | 530 kts | 118° |
| 2026-04-30 17:42 | 26.37484 | 35.98366 | 36894 ft | 529 kts | 118° |
| 2026-04-30 17:43 | 26.30175 | 36.17247 | 36884 ft | 532 kts | 118° |
| 2026-04-30 17:44 | 26.21822 | 36.38754 | 36887 ft | 534 kts | 118° |
| 2026-04-30 17:46 | 26.18733 | 36.59023 | 36893 ft | 543 kts | 83° |
| 2026-04-30 17:47 | 26.20595 | 36.75745 | 36880 ft | 544 kts | 83° |
| 2026-04-30 17:48 | 26.23489 | 37.04971 | 36881 ft | 542 kts | 83° |
| 2026-04-30 17:50 | 26.26709 | 37.38365 | 36919 ft | 543 kts | 84° |
| 2026-04-30 17:52 | 26.29076 | 37.63459 | 36907 ft | 544 kts | 84° |
| 2026-04-30 17:54 | 26.32581 | 38.01178 | 36902 ft | 545 kts | 84° |
| 2026-04-30 17:56 | 26.35620 | 38.34775 | 36910 ft | 545 kts | 84° |
| 2026-04-30 17:58 | 26.37812 | 38.60065 | 36919 ft | 546 kts | 84° |
| 2026-04-30 18:00 | 26.40662 | 38.93659 | 36908 ft | 544 kts | 85° |
| 2026-04-30 18:01 | 26.42403 | 39.14691 | 36908 ft | 544 kts | 85° |
| 2026-04-30 18:02 | 26.44128 | 39.39927 | 36911 ft | 545 kts | 88° |
| 2026-04-30 18:04 | 26.45306 | 39.65245 | 36929 ft | 547 kts | 88° |
| 2026-04-30 18:06 | 26.46919 | 39.99185 | 36941 ft | 549 kts | 88° |
| 2026-04-30 18:08 | 26.48260 | 40.28900 | 36920 ft | 546 kts | 88° |
| 2026-04-30 18:10 | 26.49712 | 40.62747 | 36939 ft | 545 kts | 89° |
| 2026-04-30 18:11 | 26.50921 | 40.92342 | 36931 ft | 545 kts | 89° |
| 2026-04-30 18:13 | 26.50980 | 41.13431 | 36940 ft | 541 kts | 98° |
| 2026-04-30 18:14 | 26.49289 | 41.34375 | 36949 ft | 542 kts | 98° |
| 2026-04-30 18:15 | 26.47488 | 41.59539 | 36935 ft | 543 kts | 98° |
| 2026-04-30 18:16 | 26.46248 | 41.76331 | 36960 ft | 544 kts | 98° |
| 2026-04-30 18:17 | 26.45624 | 41.84756 | 36952 ft | 544 kts | 98° |
| 2026-04-30 18:18 | 26.44678 | 41.97356 | 36955 ft | 544 kts | 98° |
| 2026-04-30 18:18 | 26.44041 | 42.05739 | 36963 ft | 544 kts | 98° |
| 2026-04-30 18:19 | 26.43395 | 42.14171 | 36964 ft | 544 kts | 98° |
| 2026-04-30 18:19 | 26.42745 | 42.22577 | 36951 ft | 543 kts | 99° |
| 2026-04-30 18:20 | 26.42096 | 42.30928 | 36966 ft | 542 kts | 99° |
| 2026-04-30 18:20 | 26.41441 | 42.39314 | 36972 ft | 541 kts | 99° |
| 2026-04-30 18:21 | 26.40782 | 42.47667 | 36968 ft | 540 kts | 99° |
| 2026-04-30 18:21 | 26.40118 | 42.56015 | 36979 ft | 539 kts | 99° |
| 2026-04-30 18:22 | 26.39453 | 42.64320 | 36967 ft | 538 kts | 99° |
| 2026-04-30 18:22 | 26.38445 | 42.76794 | 36981 ft | 538 kts | 99° |
| 2026-04-30 18:23 | 26.37772 | 42.85041 | 36975 ft | 538 kts | 99° |
| 2026-04-30 18:23 | 26.37087 | 42.93379 | 36974 ft | 538 kts | 99° |
| 2026-04-30 18:24 | 26.36055 | 43.05855 | 36965 ft | 538 kts | 99° |
| 2026-04-30 18:25 | 26.35352 | 43.14165 | 36972 ft | 539 kts | 99° |
| 2026-04-30 18:25 | 26.34290 | 43.26625 | 37001 ft | 539 kts | 100° |
| 2026-04-30 18:26 | 26.33215 | 43.39106 | 36978 ft | 540 kts | 100° |
| 2026-04-30 18:27 | 26.32129 | 43.51601 | 36963 ft | 540 kts | 100° |
| 2026-04-30 18:28 | 26.31029 | 43.64140 | 36950 ft | 541 kts | 100° |
| 2026-04-30 18:28 | 26.29924 | 43.76619 | 36965 ft | 540 kts | 100° |
| 2026-04-30 18:29 | 26.29846 | 43.93426 | 36963 ft | 544 kts | 92° |
| 2026-04-30 18:30 | 26.30068 | 44.08848 | 36970 ft | 543 kts | 93° |
| 2026-04-30 18:31 | 26.30141 | 44.21461 | 36968 ft | 543 kts | 93° |
| 2026-04-30 18:32 | 26.30213 | 44.34103 | 36960 ft | 542 kts | 94° |
| 2026-04-30 18:33 | 26.30277 | 44.46680 | 36966 ft | 541 kts | 94° |
| 2026-04-30 18:33 | 26.30327 | 44.59260 | 36974 ft | 542 kts | 94° |
| 2026-04-30 18:34 | 26.30365 | 44.71789 | 36969 ft | 540 kts | 94° |
| 2026-04-30 18:35 | 26.30384 | 44.80174 | 36979 ft | 540 kts | 94° |
| 2026-04-30 18:35 | 26.30399 | 44.88500 | 36983 ft | 539 kts | 94° |
| 2026-04-30 18:36 | 26.30412 | 45.01051 | 36957 ft | 538 kts | 94° |
| 2026-04-30 18:37 | 26.30414 | 45.13494 | 36980 ft | 537 kts | 94° |
| 2026-04-30 18:37 | 26.30409 | 45.21822 | 36977 ft | 536 kts | 94° |
| 2026-04-30 18:38 | 26.30400 | 45.30150 | 36987 ft | 536 kts | 95° |
| 2026-04-30 18:38 | 26.30385 | 45.38409 | 36989 ft | 536 kts | 95° |
| 2026-04-30 18:39 | 26.30363 | 45.46732 | 36985 ft | 535 kts | 95° |
| 2026-04-30 18:39 | 26.30337 | 45.54983 | 36983 ft | 534 kts | 95° |
| 2026-04-30 18:40 | 26.30303 | 45.63290 | 36988 ft | 534 kts | 95° |
| 2026-04-30 18:40 | 26.30270 | 45.71577 | 36987 ft | 534 kts | 95° |
| 2026-04-30 18:41 | 26.30233 | 45.79801 | 36983 ft | 533 kts | 95° |
| 2026-04-30 18:41 | 26.30187 | 45.88058 | 36985 ft | 532 kts | 95° |
| 2026-04-30 18:42 | 26.30135 | 45.96309 | 36990 ft | 532 kts | 95° |
| 2026-04-30 18:42 | 26.30057 | 46.08676 | 36988 ft | 531 kts | 95° |
| 2026-04-30 18:45 | 26.29773 | 46.53898 | 36989 ft | 531 kts | 95° |
| 2026-04-30 18:46 | 26.29682 | 46.62147 | 36974 ft | 530 kts | 95° |
| 2026-04-30 18:46 | 26.29575 | 46.70325 | 36990 ft | 530 kts | 95° |
| 2026-04-30 18:47 | 26.29473 | 46.78553 | 36994 ft | 529 kts | 95° |
| 2026-04-30 18:47 | 26.29371 | 46.86722 | 37001 ft | 529 kts | 95° |
| 2026-04-30 18:48 | 26.29268 | 46.94935 | 36996 ft | 529 kts | 95° |
| 2026-04-30 18:48 | 26.29153 | 47.03099 | 37000 ft | 528 kts | 95° |
| 2026-04-30 18:49 | 26.29035 | 47.11293 | 37004 ft | 528 kts | 95° |
| 2026-04-30 18:49 | 26.28915 | 47.19479 | 37012 ft | 528 kts | 95° |
| 2026-04-30 18:50 | 26.28779 | 47.27674 | 37001 ft | 528 kts | 96° |
| 2026-04-30 18:50 | 26.28631 | 47.35821 | 37001 ft | 529 kts | 96° |
| 2026-04-30 18:51 | 26.28481 | 47.44026 | 37002 ft | 529 kts | 96° |
| 2026-04-30 18:51 | 26.28328 | 47.52237 | 36996 ft | 529 kts | 96° |
| 2026-04-30 18:52 | 26.28175 | 47.60423 | 37007 ft | 530 kts | 96° |
| 2026-04-30 18:52 | 26.28076 | 47.68610 | 36996 ft | 533 kts | 91° |
| 2026-04-30 18:53 | 26.29339 | 47.76805 | 37017 ft | 538 kts | 78° |
| 2026-04-30 18:53 | 26.31127 | 47.84926 | 37002 ft | 539 kts | 78° |
| 2026-04-30 18:54 | 26.32828 | 47.93024 | 36975 ft | 539 kts | 79° |
| 2026-04-30 18:54 | 26.34469 | 48.01186 | 36979 ft | 538 kts | 79° |
| 2026-04-30 18:55 | 26.36114 | 48.09341 | 36985 ft | 538 kts | 79° |
| 2026-04-30 18:55 | 26.38589 | 48.21519 | 36983 ft | 538 kts | 79° |
| 2026-04-30 18:56 | 26.41060 | 48.33726 | 36973 ft | 537 kts | 79° |
| 2026-04-30 18:57 | 26.43499 | 48.45871 | 36972 ft | 536 kts | 79° |
| 2026-04-30 18:57 | 26.45129 | 48.54021 | 36964 ft | 536 kts | 80° |
| 2026-04-30 18:58 | 26.47505 | 48.66172 | 36945 ft | 535 kts | 83° |
| 2026-04-30 18:59 | 26.47891 | 48.78502 | 36938 ft | 530 kts | 94° |
| 2026-04-30 19:00 | 26.48088 | 48.90953 | 36113 ft | 540 kts | 92° |
| 2026-04-30 19:00 | 26.48188 | 48.95142 | 35517 ft | 540 kts | 92° |
| 2026-04-30 19:00 | 26.48388 | 49.03504 | 34181 ft | 544 kts | 92° |
| 2026-04-30 19:01 | 26.48571 | 49.11994 | 32679 ft | 548 kts | 92° |
| 2026-04-30 19:01 | 26.48657 | 49.16251 | 31948 ft | 549 kts | 92° |
| 2026-04-30 19:02 | 26.48829 | 49.24806 | 30388 ft | 551 kts | 92° |
| 2026-04-30 19:02 | 26.48996 | 49.33311 | 28657 ft | 545 kts | 91° |
| 2026-04-30 19:03 | 26.49159 | 49.41585 | 27467 ft | 520 kts | 91° |
| 2026-04-30 19:03 | 26.49305 | 49.49491 | 26332 ft | 499 kts | 91° |
| 2026-04-30 19:04 | 26.49440 | 49.57054 | 25248 ft | 480 kts | 91° |
| 2026-04-30 19:04 | 26.49570 | 49.64408 | 24174 ft | 466 kts | 91° |
| 2026-04-30 19:05 | 26.49692 | 49.71567 | 23072 ft | 460 kts | 90° |
| 2026-04-30 19:05 | 26.49786 | 49.78673 | 21963 ft | 457 kts | 93° |
| 2026-04-30 19:06 | 26.49470 | 49.85661 | 21131 ft | 453 kts | 96° |
| 2026-04-30 19:06 | 26.49240 | 49.89140 | 20610 ft | 453 kts | 96° |
| 2026-04-30 19:06 | 26.48792 | 49.96113 | 19506 ft | 447 kts | 96° |
| 2026-04-30 19:07 | 26.48389 | 50.03003 | 18399 ft | 442 kts | 96° |
| 2026-04-30 19:07 | 26.48197 | 50.06416 | 17790 ft | 440 kts | 96° |
| 2026-04-30 19:08 | 26.47817 | 50.13187 | 16675 ft | 433 kts | 96° |
| 2026-04-30 19:08 | 26.47441 | 50.19812 | 15627 ft | 425 kts | 95° |
| 2026-04-30 19:08 | 26.47252 | 50.23099 | 15081 ft | 422 kts | 95° |
| 2026-04-30 19:09 | 26.46880 | 50.29592 | 14036 ft | 416 kts | 95° |
| 2026-04-30 19:09 | 26.46690 | 50.32814 | 13488 ft | 413 kts | 95° |
| 2026-04-30 19:09 | 26.46605 | 50.35963 | 12930 ft | 410 kts | 88° |
| 2026-04-30 19:10 | 26.47834 | 50.42098 | 11945 ft | 401 kts | 68° |
| 2026-04-30 19:10 | 26.49973 | 50.47769 | 11021 ft | 392 kts | 67° |
| 2026-04-30 19:11 | 26.51017 | 50.50548 | 10833 ft | 380 kts | 67° |
| 2026-04-30 19:11 | 26.52961 | 50.55830 | 10495 ft | 359 kts | 68° |
| 2026-04-30 19:11 | 26.53890 | 50.58377 | 10350 ft | 349 kts | 68° |
| 2026-04-30 19:12 | 26.54435 | 50.60945 | 10296 ft | 334 kts | 92° |
| 2026-04-30 19:12 | 26.54010 | 50.63417 | 10186 ft | 319 kts | 116° |
| 2026-04-30 19:12 | 26.52879 | 50.65487 | 10006 ft | 307 kts | 134° |
| 2026-04-30 19:13 | 26.49589 | 50.68082 | 9432 ft | 282 kts | 162° |
| 2026-04-30 19:13 | 26.46632 | 50.70877 | 8780 ft | 283 kts | 130° |
| 2026-04-30 19:13 | 26.45481 | 50.72683 | 8425 ft | 284 kts | 134° |
| 2026-04-30 19:14 | 26.43899 | 50.73907 | 8104 ft | 275 kts | 166° |
| 2026-04-30 19:14 | 26.42039 | 50.74094 | 7828 ft | 265 kts | 192° |
| 2026-04-30 19:14 | 26.40323 | 50.73505 | 7559 ft | 260 kts | 210° |
| 2026-04-30 19:14 | 26.38680 | 50.72664 | 7267 ft | 262 kts | 197° |
| 2026-04-30 19:15 | 26.36881 | 50.72697 | 7167 ft | 257 kts | 166° |
| 2026-04-30 19:15 | 26.34272 | 50.75057 | 6991 ft | 235 kts | 127° |
| 2026-04-30 19:15 | 26.33415 | 50.76539 | 6863 ft | 223 kts | 126° |
| 2026-04-30 19:16 | 26.32601 | 50.77979 | 6663 ft | 217 kts | 125° |
| 2026-04-30 19:16 | 26.31791 | 50.79404 | 6363 ft | 217 kts | 125° |
| 2026-04-30 19:16 | 26.30275 | 50.82064 | 6008 ft | 199 kts | 124° |
| 2026-04-30 19:17 | 26.29520 | 50.83385 | 5658 ft | 200 kts | 124° |
| 2026-04-30 19:17 | 26.28010 | 50.85993 | 5024 ft | 201 kts | 122° |
| 2026-04-30 19:17 | 26.27257 | 50.87295 | 4765 ft | 196 kts | 121° |
| 2026-04-30 19:18 | 26.26290 | 50.88966 | 4512 ft | 191 kts | 122° |
| 2026-04-30 19:18 | 26.24366 | 50.89902 | 4136 ft | 192 kts | 200° |
| 2026-04-30 19:18 | 26.23583 | 50.89432 | 4030 ft | 188 kts | 220° |
| 2026-04-30 19:19 | 26.22516 | 50.88600 | 3946 ft | 192 kts | 217° |
| 2026-04-30 19:19 | 26.21389 | 50.87766 | 3839 ft | 196 kts | 216° |
| 2026-04-30 19:19 | 26.18897 | 50.85692 | 3656 ft | 191 kts | 234° |
| 2026-04-30 19:20 | 26.18373 | 50.84880 | 3595 ft | 190 kts | 246° |
| 2026-04-30 19:20 | 26.17936 | 50.83524 | 3465 ft | 182 kts | 266° |
| 2026-04-30 19:20 | 26.18063 | 50.80857 | 3097 ft | 168 kts | 290° |
| 2026-04-30 19:21 | 26.18342 | 50.79611 | 2911 ft | 166 kts | 290° |
| 2026-04-30 19:21 | 26.19268 | 50.77219 | 2494 ft | 168 kts | 304° |
| 2026-04-30 19:22 | 26.20388 | 50.75099 | 2099 ft | 149 kts | 309° |
| 2026-04-30 19:22 | 26.21959 | 50.72341 | 1563 ft | 136 kts | 309° |
| 2026-04-30 19:23 | 26.23422 | 50.69777 | 1052 ft | 131 kts | 309° |
| 2026-04-30 19:24 | 26.24411 | 50.68064 | 722 ft | 130 kts | 306° |
| 2026-04-30 19:24 | 26.24877 | 50.67210 | 535 ft | 129 kts | 306° |
| 2026-04-30 19:24 | 26.25870 | 50.65463 | 263 ft | 138 kts | 306° |
| 2026-04-30 19:25 | 26.27091 | 50.63351 | 15 ft | 61 kts | 303° |
| 2026-04-30 19:26 | 26.27309 | 50.62972 | 16 ft | 14 kts | 303° |
| 2026-04-30 19:26 | 26.27526 | 50.62598 | 17 ft | 33 kts | 303° |